Time;durP1;ratioP1;P1;durP2;ratioP2;P2;SDS_P1;SDS_P2;PMS_P1;PMS_P2;Temp;Humidity;BMP_temperature;BMP_pressure;BME280_temperature;BME280_humidity;BME280_pressure;Samples;Min_cycle;Max_cycle;Signal;HPM_P1;HPM_P2
2022/04/27 00:00:28;;;;;;;13.17;5.07;;;10.80;99.90;;;;;;5011778;28;20245;-61
2022/04/27 00:02:55;;;;;;;14.37;5.17;;;10.70;99.90;;;;;;5011939;28;20281;-62
2022/04/27 00:05:22;;;;;;;9.00;5.40;;;10.70;99.90;;;;;;5012173;28;20683;-61
2022/04/27 00:07:47;;;;;;;11.20;5.20;;;10.70;99.90;;;;;;5012074;28;20205;-62
2022/04/27 00:10:14;;;;;;;8.23;5.10;;;10.60;99.90;;;;;;5010569;28;20238;-62
2022/04/27 00:12:40;;;;;;;12.87;4.87;;;10.60;99.90;;;;;;5011665;28;20260;-62
2022/04/27 00:15:07;;;;;;;10.67;5.57;;;10.50;99.90;;;;;;5011355;28;20677;-62
2022/04/27 00:17:34;;;;;;;9.70;5.23;;;10.50;99.90;;;;;;5012352;28;20177;-62
2022/04/27 00:20:00;;;;;;;8.10;5.10;;;10.40;99.90;;;;;;5012430;28;20185;-62
2022/04/27 00:22:25;;;;;;;11.63;5.23;;;10.40;99.90;;;;;;5009879;28;20258;-62
2022/04/27 00:24:51;;;;;;;8.80;4.33;;;10.30;99.90;;;;;;5010252;28;20266;-62
2022/04/27 00:27:17;;;;;;;8.57;4.47;;;10.30;99.90;;;;;;5011545;28;20226;-62
2022/04/27 00:29:43;;;;;;;8.13;4.37;;;10.20;99.90;;;;;;5010684;28;20204;-62
2022/04/27 00:32:09;;;;;;;8.30;4.73;;;10.20;99.90;;;;;;5011036;28;20620;-62
2022/04/27 00:34:35;;;;;;;7.83;4.43;;;10.20;99.90;;;;;;5011754;28;20171;-63
2022/04/27 00:37:01;;;;;;;9.03;4.13;;;10.10;99.90;;;;;;5010833;28;20639;-62
2022/04/27 00:39:26;;;;;;;7.43;3.70;;;10.00;99.90;;;;;;5011040;28;20190;-63
2022/04/27 00:42:02;;;;;;;6.27;4.00;;;10.10;99.90;;;;;;5010733;28;20871;-62
2022/04/27 00:44:32;;;;;;;6.37;3.80;;;10.00;99.90;;;;;;5011274;28;20182;-62
2022/04/27 00:47:03;;;;;;;10.63;4.07;;;10.00;99.90;;;;;;5159175;27;183290;-61
2022/04/27 00:49:29;;;;;;;7.50;3.80;;;9.80;99.90;;;;;;5150190;27;20169;-61
2022/04/27 00:51:55;;;;;;;7.13;3.93;;;9.80;99.90;;;;;;5142303;27;20231;-61
2022/04/27 00:54:22;;;;;;;8.53;3.60;;;9.80;99.90;;;;;;5129331;27;20181;-61
2022/04/27 00:56:51;;;;;;;9.73;3.60;;;9.80;99.90;;;;;;5133116;27;20244;-61
2022/04/27 00:59:18;;;;;;;7.83;3.83;;;9.80;99.90;;;;;;5140641;27;20223;-61
2022/04/27 01:01:44;;;;;;;6.77;3.23;;;9.80;99.90;;;;;;5132973;27;20179;-61
2022/04/27 01:04:10;;;;;;;8.57;3.77;;;9.70;99.90;;;;;;5131965;27;20177;-61
2022/04/27 01:06:38;;;;;;;7.67;3.70;;;9.70;99.90;;;;;;5132347;27;20182;-61
2022/04/27 01:09:05;;;;;;;6.13;3.83;;;9.60;99.90;;;;;;5128741;27;20170;-61
2022/04/27 01:11:32;;;;;;;10.30;3.80;;;9.50;99.90;;;;;;5128753;27;20175;-61
2022/04/27 01:13:58;;;;;;;7.93;2.97;;;9.50;99.90;;;;;;5127222;27;20181;-62
2022/04/27 01:16:25;;;;;;;7.60;3.10;;;9.50;99.90;;;;;;5128330;27;20210;-61
2022/04/27 01:18:51;;;;;;;10.10;3.57;;;9.50;99.90;;;;;;5129110;27;20286;-61
2022/04/27 01:21:17;;;;;;;6.43;3.37;;;9.50;99.90;;;;;;5137202;27;20238;-62
2022/04/27 01:23:43;;;;;;;5.63;2.70;;;9.40;99.90;;;;;;5145903;27;20624;-61
2022/04/27 01:26:10;;;;;;;6.27;3.27;;;9.40;99.90;;;;;;5140513;27;20266;-62
2022/04/27 01:28:37;;;;;;;4.37;3.37;;;9.40;99.90;;;;;;5126942;28;20175;-62
2022/04/27 01:31:09;;;;;;;7.90;3.20;;;9.30;99.90;;;;;;5127797;27;20183;-62
2022/04/27 01:33:35;;;;;;;16.07;4.00;;;9.30;99.90;;;;;;5128375;27;20159;-62
2022/04/27 01:36:05;;;;;;;6.50;3.17;;;9.30;99.90;;;;;;5128460;27;20210;-62
2022/04/27 01:38:38;;;;;;;6.20;3.27;;;9.30;99.90;;;;;;5136045;27;20505;-62
2022/04/27 01:41:05;;;;;;;4.40;3.07;;;9.20;99.90;;;;;;5140405;27;20178;-60
2022/04/27 01:43:31;;;;;;;8.10;3.20;;;9.10;99.90;;;;;;5128229;27;20178;-62
2022/04/27 01:45:57;;;;;;;7.37;3.40;;;9.10;99.90;;;;;;5139740;27;20254;-59
2022/04/27 01:48:23;;;;;;;5.57;3.00;;;9.10;99.90;;;;;;5132890;27;20197;-60
2022/04/27 01:50:48;;;;;;;6.70;2.93;;;9.10;99.90;;;;;;5130645;27;20178;-62
2022/04/27 01:55:59;;;;;;;5.87;3.27;;;9.00;99.90;;;;;;5144400;27;20763;-62
2022/04/27 01:58:25;;;;;;;5.83;3.50;;;8.90;99.90;;;;;;5127605;27;20166;-62
2022/04/27 02:00:52;;;;;;;5.10;3.17;;;8.90;99.90;;;;;;5117609;27;20656;-61
2022/04/27 02:03:19;;;;;;;6.77;3.30;;;8.80;99.90;;;;;;5116634;27;20176;-61
2022/04/27 02:05:46;;;;;;;7.20;3.33;;;8.80;99.90;;;;;;5114962;27;20258;-61
2022/04/27 02:08:12;;;;;;;8.23;3.03;;;8.80;99.90;;;;;;5132483;27;20174;-61
2022/04/27 02:10:38;;;;;;;9.03;3.70;;;8.80;99.90;;;;;;5117283;27;20223;-61
2022/04/27 02:13:08;;;;;;;6.27;3.87;;;8.80;99.90;;;;;;5118672;27;20172;-61
2022/04/27 02:15:35;;;;;;;8.73;4.00;;;8.80;99.90;;;;;;5114223;27;20207;-61
2022/04/27 02:18:01;;;;;;;6.60;3.70;;;8.80;99.90;;;;;;5114376;27;20179;-62
2022/04/27 02:20:28;;;;;;;6.80;3.83;;;8.80;99.90;;;;;;5113978;27;20170;-62
2022/04/27 02:22:54;;;;;;;8.13;3.73;;;8.70;99.90;;;;;;5114138;27;20645;-63
2022/04/27 02:25:21;;;;;;;10.63;3.80;;;8.70;99.90;;;;;;5120862;27;20171;-62
2022/04/27 02:27:47;;;;;;;11.57;3.67;;;8.60;99.90;;;;;;5122471;27;20648;-62
2022/04/27 02:30:13;;;;;;;8.73;3.50;;;8.60;99.90;;;;;;5132647;27;20715;-62
2022/04/27 02:32:39;;;;;;;6.50;4.13;;;8.70;99.90;;;;;;5132582;27;20221;-63
2022/04/27 02:35:07;;;;;;;7.63;3.47;;;8.60;99.90;;;;;;5133375;27;20199;-62
2022/04/27 02:37:33;;;;;;;8.53;4.20;;;8.60;99.90;;;;;;5133331;27;20645;-62
2022/04/27 02:39:59;;;;;;;8.93;3.87;;;8.50;99.90;;;;;;5122752;27;20173;-62
2022/04/27 02:42:26;;;;;;;7.93;3.87;;;8.50;99.90;;;;;;5117457;27;20175;-62
2022/04/27 02:44:52;;;;;;;6.70;3.73;;;8.50;99.90;;;;;;5112799;27;20637;-62
2022/04/27 02:47:19;;;;;;;7.20;3.93;;;8.50;99.90;;;;;;5074104;28;20181;-62
2022/04/27 02:52:29;;;;;;;7.57;3.43;;;8.40;99.90;;;;;;5080904;28;20226;-62
2022/04/27 02:54:55;;;;;;;6.27;3.37;;;8.50;99.90;;;;;;5071538;28;20187;-62
2022/04/27 02:57:21;;;;;;;8.83;3.87;;;8.40;99.90;;;;;;5073820;28;20251;-62
2022/04/27 02:59:47;;;;;;;9.53;3.73;;;8.40;99.90;;;;;;5092679;28;20172;-62
2022/04/27 03:02:13;;;;;;;6.20;3.47;;;8.40;99.90;;;;;;5075833;28;20284;-62
2022/04/27 03:04:39;;;;;;;8.10;3.17;;;8.40;99.90;;;;;;5072572;28;20687;-62
2022/04/27 03:07:05;;;;;;;5.70;3.17;;;8.30;99.90;;;;;;5072573;28;20181;-63
2022/04/27 03:09:31;;;;;;;14.03;3.60;;;8.40;99.90;;;;;;5071746;28;20188;-63
2022/04/27 03:11:57;;;;;;;6.27;3.93;;;8.40;99.90;;;;;;5072724;28;20706;-63
2022/04/27 03:14:23;;;;;;;5.33;3.70;;;8.40;99.90;;;;;;5072824;28;20178;-63
2022/04/27 03:16:49;;;;;;;7.37;3.40;;;8.40;99.90;;;;;;5080090;28;20689;-65
2022/04/27 03:19:15;;;;;;;7.37;3.50;;;8.40;99.90;;;;;;5090976;28;20168;-65
2022/04/27 03:21:42;;;;;;;9.60;4.00;;;8.30;99.90;;;;;;5090857;28;20646;-64
2022/04/27 03:24:08;;;;;;;6.07;3.60;;;8.30;99.90;;;;;;5089293;28;20202;-64
2022/04/27 03:26:34;;;;;;;7.73;3.43;;;8.30;99.90;;;;;;5072957;28;20208;-64
2022/04/27 03:29:00;;;;;;;7.13;3.27;;;8.30;99.90;;;;;;5079596;28;20175;-64
2022/04/27 03:31:26;;;;;;;6.40;3.03;;;8.30;99.90;;;;;;5090773;28;20178;-62
2022/04/27 03:33:52;;;;;;;6.93;3.20;;;8.30;99.90;;;;;;5079443;28;20541;-63
2022/04/27 03:36:17;;;;;;;6.23;3.40;;;8.20;99.90;;;;;;5072102;28;20223;-62
2022/04/27 03:38:43;;;;;;;6.03;3.23;;;8.30;99.90;;;;;;5076603;28;20310;-63
2022/04/27 03:41:10;;;;;;;7.90;3.30;;;8.30;99.90;;;;;;5071394;28;20814;-63
2022/04/27 03:43:36;;;;;;;6.70;3.40;;;8.30;99.90;;;;;;5091328;28;20270;-63
2022/04/27 03:46:02;;;;;;;6.60;3.37;;;8.20;99.90;;;;;;5092605;27;20211;-63
2022/04/27 03:48:28;;;;;;;6.90;3.87;;;8.30;99.90;;;;;;5113984;27;20649;-63
2022/04/27 03:50:53;;;;;;;5.03;3.23;;;8.30;99.90;;;;;;5112482;28;20796;-63
2022/04/27 03:53:19;;;;;;;6.23;3.60;;;8.30;99.90;;;;;;5112347;27;20171;-63
2022/04/27 03:55:45;;;;;;;7.23;3.80;;;8.30;99.90;;;;;;5114306;27;20213;-62
2022/04/27 03:58:11;;;;;;;6.20;3.53;;;8.30;99.90;;;;;;5128877;27;20192;-62
2022/04/27 04:00:37;;;;;;;12.73;3.43;;;8.20;99.90;;;;;;5130575;27;20227;-63
2022/04/27 04:03:04;;;;;;;4.93;3.43;;;8.30;99.90;;;;;;5130686;27;20261;-63
2022/04/27 04:05:30;;;;;;;5.20;2.97;;;8.30;99.90;;;;;;5114855;27;20258;-61
2022/04/27 04:07:56;;;;;;;7.70;3.60;;;8.30;99.90;;;;;;5112550;27;20178;-61
2022/04/27 04:10:22;;;;;;;8.00;3.30;;;8.30;99.90;;;;;;5112108;27;20634;-61
2022/04/27 04:12:48;;;;;;;7.00;3.90;;;8.40;99.90;;;;;;5112094;27;20175;-61
2022/04/27 04:15:14;;;;;;;8.07;3.63;;;8.40;99.90;;;;;;5111893;27;20205;-61
2022/04/27 04:17:44;;;;;;;7.27;3.10;;;8.50;99.90;;;;;;5112502;27;20183;-62
2022/04/27 04:20:12;;;;;;;7.60;3.20;;;8.40;99.90;;;;;;5111645;27;20179;-61
2022/04/27 04:22:37;;;;;;;7.17;3.20;;;8.50;99.90;;;;;;5111857;27;20649;-61
2022/04/27 04:30:32;;;;;;;6.53;3.57;;;8.50;99.90;;;;;;5112311;28;20290;-61
2022/04/27 04:32:58;;;;;;;6.93;3.33;;;8.50;99.90;;;;;;5121943;27;20175;-62
2022/04/27 04:35:24;;;;;;;7.80;3.40;;;8.50;99.90;;;;;;5129024;27;20575;-61
2022/04/27 04:37:49;;;;;;;7.33;3.33;;;8.50;99.90;;;;;;5117753;27;20227;-62
2022/04/27 04:40:15;;;;;;;6.93;3.30;;;8.50;99.90;;;;;;5111572;28;20175;-62
2022/04/27 04:42:41;;;;;;;5.70;3.37;;;8.50;99.90;;;;;;5128364;27;20644;-62
2022/04/27 04:45:07;;;;;;;6.93;3.93;;;8.40;99.90;;;;;;5130113;27;20541;-62
2022/04/27 04:47:33;;;;;;;9.63;3.40;;;8.40;99.90;;;;;;5115180;28;20219;-61
2022/04/27 04:49:58;;;;;;;8.53;3.80;;;8.30;99.90;;;;;;5130126;28;20288;-62
2022/04/27 04:52:24;;;;;;;8.37;3.10;;;8.20;99.90;;;;;;5119573;28;20254;-63
2022/04/27 04:54:50;;;;;;;8.47;3.40;;;8.20;99.90;;;;;;5112936;28;20174;-62
2022/04/27 04:57:16;;;;;;;6.47;3.80;;;8.10;99.90;;;;;;5116612;28;20290;-62
2022/04/27 04:59:41;;;;;;;5.97;3.70;;;8.20;99.90;;;;;;5114960;27;20171;-62
2022/04/27 05:02:07;;;;;;;5.80;2.87;;;8.10;99.90;;;;;;5111813;28;20175;-62
2022/04/27 05:04:33;;;;;;;8.07;3.27;;;8.20;99.90;;;;;;5111563;28;20167;-62
2022/04/27 05:06:59;;;;;;;7.07;3.00;;;8.30;99.90;;;;;;5114239;27;20186;-64
2022/04/27 05:09:24;;;;;;;5.17;3.20;;;8.30;99.90;;;;;;5131699;27;20697;-64
2022/04/27 05:11:50;;;;;;;7.80;3.27;;;8.30;99.90;;;;;;5122203;27;20652;-63
2022/04/27 05:14:16;;;;;;;7.93;3.40;;;8.40;99.90;;;;;;5126123;28;20175;-63
2022/04/27 05:16:42;;;;;;;10.13;2.93;;;8.50;99.90;;;;;;5130363;28;20202;-63
2022/04/27 05:19:07;;;;;;;5.77;3.00;;;8.50;99.90;;;;;;5127888;28;20202;-63
2022/04/27 05:21:33;;;;;;;5.57;2.90;;;8.50;99.90;;;;;;5129436;28;20533;-64
2022/04/27 05:23:59;;;;;;;8.37;3.00;;;8.50;99.90;;;;;;5129835;27;20171;-63
2022/04/27 05:26:24;;;;;;;7.77;3.13;;;8.50;99.90;;;;;;5111155;28;20553;-63
2022/04/27 05:34:19;;;;;;;9.57;3.23;;;8.60;99.90;;;;;;5116441;27;20178;-63
2022/04/27 05:36:45;;;;;;;7.83;3.60;;;8.60;99.90;;;;;;5123433;27;20523;-63
2022/04/27 05:39:10;;;;;;;5.83;3.60;;;8.60;99.90;;;;;;5134371;27;20530;-63
2022/04/27 05:41:36;;;;;;;9.37;3.50;;;8.60;99.90;;;;;;5123747;27;20545;-63
2022/04/27 05:44:12;;;;;;;7.87;3.37;;;8.70;99.90;;;;;;5115211;27;20720;-63
2022/04/27 05:46:38;;;;;;;5.90;3.40;;;8.70;99.90;;;;;;5114634;27;20222;-64
2022/04/27 05:49:04;;;;;;;6.20;3.67;;;8.70;99.90;;;;;;5129808;27;20186;-64
2022/04/27 05:51:30;;;;;;;7.53;4.20;;;8.70;99.90;;;;;;5131555;27;20171;-63
2022/04/27 05:53:57;;;;;;;7.47;3.80;;;8.70;99.90;;;;;;5118821;27;20655;-64
2022/04/27 05:56:24;;;;;;;10.93;4.50;;;8.80;99.90;;;;;;5115426;27;20225;-63
2022/04/27 05:58:51;;;;;;;11.20;4.20;;;8.80;99.90;;;;;;5115334;27;20706;-64
2022/04/27 06:01:16;;;;;;;15.43;4.10;;;8.90;99.90;;;;;;5118706;27;20203;-64
2022/04/27 06:03:42;;;;;;;6.93;4.33;;;9.00;99.90;;;;;;5130569;27;20206;-63
2022/04/27 06:06:08;;;;;;;10.53;4.40;;;9.00;99.90;;;;;;5117566;27;20175;-64
2022/04/27 06:08:34;;;;;;;11.07;4.17;;;8.90;99.90;;;;;;5116840;27;20175;-63
2022/04/27 06:10:59;;;;;;;9.23;4.47;;;9.00;99.90;;;;;;5126075;27;20579;-63
2022/04/27 06:13:26;;;;;;;7.70;4.67;;;8.90;99.90;;;;;;5121225;27;20179;-64
2022/04/27 06:15:52;;;;;;;8.60;4.20;;;9.00;99.90;;;;;;5114043;27;20629;-65
2022/04/27 06:18:18;;;;;;;10.17;4.33;;;9.00;99.90;;;;;;5122744;27;20178;-63
2022/04/27 06:20:43;;;;;;;10.77;4.10;;;9.10;99.90;;;;;;5129465;27;20694;-64
2022/04/27 06:23:09;;;;;;;13.00;4.23;;;9.10;99.90;;;;;;5113325;27;20207;-64
2022/04/27 06:25:39;;;;;;;9.23;4.73;;;9.20;99.90;;;;;;5117680;27;20182;-65
2022/04/27 06:28:05;;;;;;;8.73;4.37;;;9.20;99.90;;;;;;5114352;27;20171;-64
2022/04/27 06:30:32;;;;;;;9.77;4.47;;;9.30;99.90;;;;;;5113946;28;20223;-63
2022/04/27 06:32:58;;;;;;;8.00;4.37;;;9.40;99.90;;;;;;5113041;27;20183;-59
2022/04/27 06:35:24;;;;;;;5.60;4.00;;;9.50;99.90;;;;;;5119866;27;20236;-60
2022/04/27 06:37:50;;;;;;;6.83;4.47;;;9.60;99.90;;;;;;5126920;27;20182;-68
2022/04/27 06:40:15;;;;;;;7.23;4.30;;;9.70;99.90;;;;;;5128958;27;20242;-65
2022/04/27 06:42:43;;;;;;;7.90;4.00;;;9.70;99.90;;;;;;5128622;27;20595;-61
2022/04/27 06:45:09;;;;;;;10.97;3.97;;;9.80;99.90;;;;;;5125558;27;20214;-61
2022/04/27 06:47:35;;;;;;;10.43;4.30;;;9.80;99.90;;;;;;5133618;27;20212;-62
2022/04/27 06:50:01;;;;;;;11.60;4.30;;;9.80;99.90;;;;;;5114120;27;20328;-64
2022/04/27 06:52:27;;;;;;;6.33;3.60;;;9.90;99.90;;;;;;5113123;28;20183;-62
2022/04/27 06:54:52;;;;;;;11.20;4.43;;;10.00;99.90;;;;;;5113147;28;20254;-62
2022/04/27 06:57:18;;;;;;;5.43;3.30;;;10.10;99.90;;;;;;5111720;28;20530;-63
2022/04/27 06:59:44;;;;;;;10.77;3.50;;;10.10;99.90;;;;;;5113332;28;20871;-61
2022/04/27 07:02:12;;;;;;;7.83;3.00;;;10.20;99.90;;;;;;5117885;27;20628;-59
2022/04/27 07:04:40;;;;;;;6.27;3.20;;;10.10;99.90;;;;;;5133481;27;20537;-76
2022/04/27 07:07:07;;;;;;;8.80;3.10;;;10.20;99.90;;;;;;5121013;27;20171;-65
2022/04/27 07:09:33;;;;;;;6.50;3.13;;;10.30;99.90;;;;;;5120271;27;20171;-66
2022/04/27 07:11:59;;;;;;;6.73;3.17;;;10.40;99.90;;;;;;5112858;28;20172;-67
2022/04/27 07:14:25;;;;;;;6.33;3.17;;;10.40;99.90;;;;;;5112935;28;20171;-65
2022/04/27 07:16:51;;;;;;;9.60;3.23;;;10.60;99.90;;;;;;5125439;27;20213;-67
2022/04/27 07:19:17;;;;;;;10.97;2.83;;;10.60;99.90;;;;;;5132232;27;20219;-65
2022/04/27 07:21:43;;;;;;;7.57;3.37;;;10.70;99.90;;;;;;5126897;27;20181;-64
2022/04/27 07:24:09;;;;;;;4.60;2.93;;;10.80;99.90;;;;;;5112685;28;20242;-66
2022/04/27 07:26:35;;;;;;;8.13;2.77;;;10.70;99.90;;;;;;5112171;28;20206;-65
2022/04/27 07:29:01;;;;;;;4.93;2.43;;;10.70;99.90;;;;;;5112411;28;20235;-65
2022/04/27 07:31:27;;;;;;;9.87;2.90;;;10.70;99.90;;;;;;5113850;27;20171;-65
2022/04/27 07:33:53;;;;;;;12.77;2.30;;;10.80;99.90;;;;;;5121807;27;20218;-67
2022/04/27 07:36:19;;;;;;;6.80;2.50;;;10.70;99.90;;;;;;5111475;28;20214;-67
2022/04/27 07:38:45;;;;;;;5.80;2.40;;;10.60;99.90;;;;;;5111825;28;20297;-67
2022/04/27 07:41:11;;;;;;;7.03;2.13;;;10.80;99.90;;;;;;5112031;28;20534;-62
2022/04/27 07:43:37;;;;;;;6.93;2.20;;;10.80;99.90;;;;;;5115521;27;20175;-61
2022/04/27 07:46:08;;;;;;;4.07;1.77;;;10.90;99.90;;;;;;5121542;27;20217;-62
2022/04/27 07:48:35;;;;;;;5.97;2.00;;;11.00;99.90;;;;;;5111360;28;20516;-63
2022/04/27 07:51:02;;;;;;;6.10;1.80;;;11.00;99.90;;;;;;5119231;27;20179;-63
2022/04/27 07:53:28;;;;;;;2.83;1.63;;;11.30;99.90;;;;;;5117999;27;20163;-62
2022/04/27 07:55:54;;;;;;;7.90;1.50;;;11.30;99.90;;;;;;5110804;28;20576;-70
2022/04/27 07:58:20;;;;;;;2.70;1.30;;;11.40;99.90;;;;;;5122694;27;20261;-67
2022/04/27 08:00:46;;;;;;;9.17;1.53;;;11.70;99.90;;;;;;5132571;27;20682;-64
2022/04/27 08:03:12;;;;;;;5.17;1.53;;;11.90;99.90;;;;;;5111707;27;20705;-61
2022/04/27 08:05:38;;;;;;;4.17;1.30;;;12.00;99.90;;;;;;5111448;28;20183;-65
2022/04/27 08:08:05;;;;;;;5.70;1.48;;;11.80;99.90;;;;;;5111783;28;20605;-62
2022/04/27 08:10:31;;;;;;;4.53;1.27;;;11.90;99.90;;;;;;5111689;28;20164;-62
2022/04/27 08:12:57;;;;;;;6.85;1.58;;;12.10;99.90;;;;;;5117930;27;20209;-68
2022/04/27 08:15:26;;;;;;;7.22;1.50;;;12.00;99.90;;;;;;5122586;27;20190;-68
2022/04/27 08:18:00;;;;;;;5.22;1.40;;;12.20;99.90;;;;;;5122455;27;20183;-70
2022/04/27 08:23:16;;;;;;;4.63;1.00;;;12.60;99.90;;;;;;5117910;27;20209;-68
2022/04/27 08:25:43;;;;;;;13.45;1.48;;;12.60;99.90;;;;;;5111447;28;20190;-68
2022/04/27 08:28:09;;;;;;;10.77;1.40;;;12.80;99.90;;;;;;5110607;28;20378;-68
2022/04/27 08:30:40;;;;;;;7.40;1.13;;;12.80;99.90;;;;;;5110760;28;20641;-68
2022/04/27 08:33:06;;;;;;;3.58;0.90;;;13.00;99.90;;;;;;5115058;27;20174;-70
2022/04/27 08:35:33;;;;;;;5.93;1.30;;;13.00;99.90;;;;;;5115104;27;20202;-67
2022/04/27 08:38:00;;;;;;;7.68;1.13;;;13.30;99.90;;;;;;5131017;27;20174;-68
2022/04/27 08:40:26;;;;;;;4.03;1.02;;;13.70;99.90;;;;;;5126764;27;20628;-68
2022/04/27 08:42:53;;;;;;;6.22;1.38;;;13.70;99.90;;;;;;5118534;27;20174;-68
2022/04/27 08:45:20;;;;;;;5.05;1.30;;;13.70;99.90;;;;;;5111345;28;20234;-68
2022/04/27 08:47:47;;;;;;;5.03;1.27;;;13.60;99.90;;;;;;5114660;28;20175;-69
2022/04/27 08:50:16;;;;;;;6.55;1.13;;;13.80;99.90;;;;;;5117013;28;20163;-68
2022/04/27 08:52:43;;;;;;;6.80;1.25;;;13.80;99.90;;;;;;5131508;27;20628;-58
2022/04/27 08:55:10;;;;;;;3.35;1.40;;;13.90;99.90;;;;;;5114310;27;20167;-58
2022/04/27 08:57:36;;;;;;;6.18;1.30;;;13.80;99.90;;;;;;5114452;28;20632;-58
2022/04/27 09:00:09;;;;;;;2.42;1.00;;;13.50;99.90;;;;;;5131786;27;20213;-60
2022/04/27 09:02:35;;;;;;;6.65;1.27;;;13.30;99.90;;;;;;5131757;27;20171;-59
2022/04/27 09:05:11;;;;;;;5.50;1.35;;;13.40;99.90;;;;;;5131262;27;20163;-61
2022/04/27 09:07:39;;;;;;;3.20;1.10;;;13.10;99.90;;;;;;5130260;27;20643;-60
2022/04/27 09:10:08;;;;;;;7.50;1.20;;;13.20;99.90;;;;;;5130246;27;20181;-59
2022/04/27 09:12:35;;;;;;;4.40;1.13;;;13.10;99.90;;;;;;5121705;27;20164;-59
2022/04/27 09:15:06;;;;;;;2.60;1.00;;;12.70;99.90;;;;;;5114077;28;20171;-59
2022/04/27 09:23:03;;;;;;;7.82;1.60;;;12.20;99.90;;;;;;5122861;27;20182;-57
2022/04/27 09:25:36;;;;;;;5.20;1.65;;;12.30;99.90;;;;;;5115004;27;20179;-59
2022/04/27 09:28:04;;;;;;;4.05;1.38;;;12.00;99.90;;;;;;5119314;27;20262;-58
2022/04/27 09:30:31;;;;;;;9.60;1.55;;;11.90;99.90;;;;;;5123713;27;20198;-59
2022/04/27 09:32:58;;;;;;;3.13;1.03;;;11.70;99.90;;;;;;5130128;27;20182;-58
2022/04/27 09:35:34;;;;;;;2.67;1.33;;;11.80;99.90;;;;;;5131160;27;20687;-58
2022/04/27 09:38:17;;;;;;;3.45;1.30;;;11.70;99.90;;;;;;5119720;27;20170;-58
2022/04/27 09:40:58;;;;;;;3.63;1.33;;;11.70;99.90;;;;;;5114616;28;20500;-58
2022/04/27 09:43:45;;;;;;;4.50;1.40;;;11.80;99.90;;;;;;5114059;28;20159;-60
2022/04/27 09:46:25;;;;;;;2.67;1.10;;;12.00;99.90;;;;;;5114601;27;20218;-59
2022/04/27 09:49:02;;;;;;;5.27;1.30;;;12.00;99.90;;;;;;5131273;27;20178;-58
2022/04/27 09:51:28;;;;;;;2.13;1.00;;;12.00;99.90;;;;;;5132962;27;20178;-58
2022/04/27 09:53:59;;;;;;;3.05;0.95;;;12.30;99.90;;;;;;5132968;27;20174;-58
2022/04/27 09:56:28;;;;;;;1.83;1.00;;;12.50;99.90;;;;;;5134520;27;20198;-59
2022/04/27 09:58:56;;;;;;;2.90;1.10;;;12.60;99.90;;;;;;5122065;27;20202;-59
2022/04/27 10:01:23;;;;;;;3.17;0.90;;;12.80;99.90;;;;;;5125559;27;20170;-59
2022/04/27 10:03:49;;;;;;;2.67;1.00;;;12.90;99.90;;;;;;5120541;27;20197;-58
2022/04/27 10:06:16;;;;;;;7.68;0.93;;;12.70;99.90;;;;;;5122106;27;20541;-58
2022/04/27 10:08:42;;;;;;;4.90;1.10;;;12.80;99.90;;;;;;5124808;27;20274;-59
2022/04/27 10:11:11;;;;;;;4.03;0.93;;;12.70;99.90;;;;;;5124336;27;20175;-58
2022/04/27 10:13:38;;;;;;;3.33;1.00;;;12.30;99.90;;;;;;5115989;27;20206;-58
2022/04/27 10:16:04;;;;;;;3.22;1.00;;;12.50;99.90;;;;;;5115749;27;20195;-58
2022/04/27 10:18:31;;;;;;;4.85;0.90;;;12.50;99.90;;;;;;5111190;27;20225;-59
2022/04/27 10:20:57;;;;;;;2.40;1.13;;;12.70;99.90;;;;;;5112015;28;20194;-59
2022/04/27 10:23:33;;;;;;;6.10;1.30;;;12.80;99.90;;;;;;5112792;28;20629;-58
2022/04/27 10:26:08;;;;;;;4.70;1.17;;;12.70;99.90;;;;;;5117398;27;20202;-58
2022/04/27 10:28:37;;;;;;;6.75;1.15;;;12.30;99.90;;;;;;5113666;27;20170;-59
2022/04/27 10:31:04;;;;;;;4.13;1.50;;;12.10;99.90;;;;;;5113735;28;20174;-58
2022/04/27 10:33:47;;;;;;;13.05;1.38;;;12.30;99.90;;;;;;5117285;27;20668;-59
2022/04/27 10:36:34;;;;;;;3.15;1.15;;;12.50;99.90;;;;;;5113331;28;20233;-59
2022/04/27 10:39:12;;;;;;;4.82;1.17;;;12.80;99.90;;;;;;5111612;28;20175;-59
2022/04/27 10:42:04;;;;;;;9.02;1.20;;;12.70;99.90;;;;;;5129626;27;20181;-59
2022/04/27 10:44:50;;;;;;;2.63;1.00;;;12.30;99.90;;;;;;5113076;27;20186;-58
2022/04/27 10:47:21;;;;;;;3.07;1.23;;;12.50;99.90;;;;;;5116004;27;20689;-59
2022/04/27 10:50:13;;;;;;;12.80;1.92;;;12.60;99.90;;;;;;5113507;27;20243;-58
2022/04/27 10:52:44;;;;;;;17.58;1.75;;;12.80;99.90;;;;;;5112901;28;20199;-59
2022/04/27 10:55:35;;;;;;;5.38;1.60;;;13.00;99.90;;;;;;5121016;27;20257;-59
2022/04/27 10:58:13;;;;;;;2.45;1.10;;;13.20;99.90;;;;;;5123586;27;20198;-58
2022/04/27 11:01:05;;;;;;;3.95;1.33;;;13.40;99.90;;;;;;5113428;27;20171;-58
2022/04/27 11:03:35;;;;;;;7.32;1.20;;;13.40;99.90;;;;;;5085089;28;20599;-57
2022/04/27 11:06:12;;;;;;;2.45;1.40;;;13.50;99.90;;;;;;5111749;27;20274;-57
2022/04/27 11:08:56;;;;;;;6.32;1.50;;;13.30;99.90;;;;;;5113022;27;20251;-57
2022/04/27 11:11:27;;;;;;;8.68;1.90;;;13.00;99.90;;;;;;5112609;28;20626;-59
2022/04/27 11:14:00;;;;;;;6.38;1.80;;;12.60;99.90;;;;;;5117168;27;20621;-59
2022/04/27 11:16:26;;;;;;;4.53;1.30;;;12.80;99.90;;;;;;5114220;27;20221;-58
2022/04/27 11:18:57;;;;;;;5.25;1.33;;;13.10;99.90;;;;;;5116684;27;20171;-58
2022/04/27 11:21:30;;;;;;;8.10;1.63;;;13.20;99.90;;;;;;5130669;27;20202;-58
2022/04/27 11:24:00;;;;;;;5.10;1.20;;;13.00;99.90;;;;;;5127521;27;20163;-58
2022/04/27 11:26:26;;;;;;;3.85;1.35;;;13.30;99.90;;;;;;5114556;27;20202;-58
2022/04/27 11:28:57;;;;;;;8.93;1.83;;;13.20;99.90;;;;;;5132263;27;20201;-58
2022/04/27 11:31:23;;;;;;;3.47;1.52;;;13.40;99.90;;;;;;5131456;27;20217;-58
2022/04/27 11:33:49;;;;;;;4.78;1.52;;;13.30;99.90;;;;;;5123737;27;20199;-58
2022/04/27 11:36:23;;;;;;;5.82;1.58;;;13.40;99.90;;;;;;5124888;27;20198;-58
2022/04/27 11:38:50;;;;;;;5.55;1.40;;;13.60;99.90;;;;;;5132816;27;20162;-58
2022/04/27 11:41:21;;;;;;;3.55;1.50;;;13.80;99.90;;;;;;5131942;27;20219;-58
2022/04/27 11:43:54;;;;;;;4.25;1.42;;;13.60;99.90;;;;;;5132530;27;20273;-58
2022/04/27 11:46:20;;;;;;;4.28;1.50;;;13.60;99.90;;;;;;5127856;27;20301;-60
2022/04/27 11:48:56;;;;;;;7.35;2.17;;;13.50;99.90;;;;;;5112116;28;20600;-58
2022/04/27 11:51:21;;;;;;;4.28;1.67;;;13.40;99.90;;;;;;5115799;27;20163;-58
2022/04/27 11:53:49;;;;;;;8.10;2.30;;;13.40;99.90;;;;;;5130004;27;20580;-58
2022/04/27 11:56:19;;;;;;;3.28;1.70;;;13.40;99.90;;;;;;5121296;27;20194;-58
2022/04/27 11:58:45;;;;;;;7.18;1.80;;;13.50;99.90;;;;;;5128623;27;20215;-58
2022/04/27 12:01:19;;;;;;;7.45;1.85;;;13.40;99.90;;;;;;5125046;27;20206;-58
2022/04/27 12:03:45;;;;;;;8.77;1.67;;;13.40;99.90;;;;;;5111861;27;20170;-58
2022/04/27 12:06:18;;;;;;;5.15;1.50;;;13.10;99.90;;;;;;5111790;28;20613;-58
2022/04/27 12:08:43;;;;;;;5.68;1.48;;;12.80;99.90;;;;;;5110742;28;20660;-58
2022/04/27 12:11:09;;;;;;;11.65;1.83;;;12.80;99.90;;;;;;5124303;27;20205;-58
2022/04/27 12:13:36;;;;;;;6.25;1.80;;;13.10;99.90;;;;;;5115512;27;20247;-58
2022/04/27 12:16:01;;;;;;;4.93;1.80;;;13.10;99.90;;;;;;5131976;27;20274;-58
2022/04/27 12:18:28;;;;;;;12.43;1.80;;;13.30;99.90;;;;;;5132230;27;20158;-57
2022/04/27 12:20:57;;;;;;;6.35;1.70;;;13.60;99.90;;;;;;5129673;27;20171;-58
2022/04/27 12:23:29;;;;;;;12.63;2.53;;;13.50;99.90;;;;;;5129052;27;20202;-57
2022/04/27 12:25:58;;;;;;;8.07;1.83;;;13.60;99.90;;;;;;5131816;27;20162;-58
2022/04/27 12:28:25;;;;;;;5.38;1.85;;;13.60;99.90;;;;;;5127611;27;20221;-58
2022/04/27 12:30:53;;;;;;;8.32;1.92;;;13.60;99.90;;;;;;5124130;27;20175;-58
2022/04/27 12:33:22;;;;;;;6.30;1.83;;;13.70;99.90;;;;;;5131934;27;20190;-58
2022/04/27 12:38:37;;;;;;;2.58;1.50;;;13.80;99.90;;;;;;5125245;28;20231;-57
2022/04/27 12:41:04;;;;;;;7.05;1.60;;;13.90;99.90;;;;;;5131306;27;20175;-57
2022/04/27 12:43:32;;;;;;;4.40;1.60;;;13.80;99.90;;;;;;5111292;28;20167;-57
2022/04/27 12:46:08;;;;;;;4.72;1.65;;;13.80;99.90;;;;;;5111061;28;20227;-57
2022/04/27 12:48:35;;;;;;;9.93;1.83;;;13.60;99.90;;;;;;5110948;28;20254;-59
2022/04/27 12:51:05;;;;;;;7.32;2.40;;;13.50;99.90;;;;;;5109853;28;20660;-73
2022/04/27 12:53:32;;;;;;;7.63;2.15;;;13.50;99.90;;;;;;5113627;28;20186;-70
2022/04/27 12:56:10;;;;;;;9.80;1.77;;;13.60;99.90;;;;;;5131432;27;20229;-60
2022/04/27 12:58:36;;;;;;;10.32;2.30;;;13.80;99.90;;;;;;5131508;27;20652;-60
2022/04/27 13:01:02;;;;;;;6.57;2.30;;;13.60;99.90;;;;;;5131536;27;20197;-59
2022/04/27 13:03:28;;;;;;;4.50;1.98;;;13.40;99.90;;;;;;5130140;27;20668;-59
2022/04/27 13:05:54;;;;;;;7.30;1.77;;;13.50;99.90;;;;;;5124570;27;20276;-63
2022/04/27 13:08:20;;;;;;;7.05;1.92;;;13.40;99.90;;;;;;5130855;28;20158;-61
2022/04/27 13:13:30;;;;;;;5.47;1.70;;;13.90;99.90;;;;;;5131645;28;20181;-59
2022/04/27 13:15:56;;;;;;;8.63;2.13;;;13.80;99.90;;;;;;5131393;27;20194;-59
2022/04/27 13:18:22;;;;;;;7.00;2.40;;;13.70;99.90;;;;;;5131779;27;20178;-59
2022/04/27 13:20:50;;;;;;;13.57;2.10;;;13.80;99.90;;;;;;5131509;28;20528;-59
2022/04/27 13:23:17;;;;;;;7.53;2.45;;;13.70;99.90;;;;;;5131310;27;20173;-59